Henry, TN (38231)

9:15 PM CDT on September 02, 2014 (GMT -0500)
54 Lawn | Change Station
CLOSE
Current Station
Personal Weather Station
Location: Paris, TN
Elevation: 499 ft
Nearby Weather Stations

Elev 499 ft 36.29 °N, 88.42 °W | Updated 24 seconds ago

Thunderstorm
Thunderstorm
75.7 °F
Feels Like 74 °F
N
0.0
Wind Variable Wind from SSE
Gusts 3.0 mph

Today
High -- | Low -- °F
--% Chance of Precip.
Yesterday
High -- | Low -- °F
Precip. -- in
6:26 AM 7:20 PM
First Quarter, 57% visible
Pressure 29.98 in
Visibility 10.0 miles
Clouds Clear
Heat Index 74 °F
Dew Point 75 °F
Humidity 97%
Rainfall 0.22 in
Snow Depth Not available.
UV 0 out of 12
Pollen 10.00 out of 12
Air Quality Not available.
Flu Activity Not available.
METAR KUCY 030155Z AUTO 00000KT 10SM CLR 23/22 A2998 RMK

More Conditions Fewer Conditions

Pressure 29.98 in
Visibility 10.0 miles
Clouds Clear
Heat Index 74 °F
Dew Point 75 °F
Humidity 97%
Rainfall 0.22 in
Snow Depth Not available.
UV 0 out of 12
Pollen 10.00 out of 12
Air Quality Not available.
Flu Activity Not available.
METAR KUCY 030155Z AUTO 00000KT 10SM CLR 23/22 A2998 RMK

More Conditions Fewer Conditions

10-Day Weather Forecast

Almanac

Astronomy

Sep. 02, 2014 Rise Set
Actual Time 6:26 AM CDT 7:20 PM CDT
Civil Twilight 5:59 AM CDT 7:46 PM CDT
Nautical Twilight 5:28 AM CDT 8:17 PM CDT
Astronomical Twilight 4:56 AM CDT 8:49 PM CDT
Moon 1:57 PM CDT (9/2) No Moon Set
Length of Visible Light 13h 46m
Length of Day
12h 53m
Tomorrow will be 2m 12s shorter.
First Quarter, 57% of the Moon is Illuminated
Today
First Quarter
Sep 8
Full
Sep 15
Last Quarter
Sep 24
New
Oct 1
First Quarter

Today's Extremes

State Highs State Lows

Community

WunderPhotos

Upload Photos

1,749,841 photos uploaded!

Nearby

Snow Depth

Station Depth Elevation
No new snow has been reported.

Earthquake Activity

City Distance Mag. Time & Date
Tiptonville, Tennessee 60 miles 2.9 11:19 PM CDT
2014-08-31
Minimum magnitude displayed is 2.5.

Coastal Water Temperatures

Place Temperature
No Stations Reporting

Nearby Weather Stations